Time,TemperatureF,DewpointF,PressureIn,WindDirection,WindDirectionDegrees,WindSpeedMPH,WindSpeedGustMPH,Humidity,HourlyPrecipIn,Conditions,Clouds,dailyrainin,SolarRadiationWatts/m^2,SoftwareType,DateUTC
2013-02-14 00:00:00,34.9,31.4,29.85,SSW,195,4.0,6.0,87,0.00,,,0.06,0,Wunderground v.1.15,2013-02-14 05:00:00,
2013-02-14 00:05:00,35.1,31.9,29.86,South,180,4.0,6.0,88,0.00,,,0.00,0,Wunderground v.1.15,2013-02-14 05:05:00,
2013-02-14 00:10:00,35.2,32.0,29.86,SSW,198,5.0,5.0,88,0.00,,,0.00,0,Wunderground v.1.15,2013-02-14 05:10:00,
2013-02-14 00:15:00,35.3,32.1,29.86,SSW,208,6.0,6.0,88,0.00,,,0.00,0,Wunderground v.1.15,2013-02-14 05:15:00,
2013-02-14 09:40:00,37.5,34.6,29.84,SSW,211,6.0,6.0,89,0.00,,,0.00,160,Wunderground v.1.15,2013-02-14 14:40:00,
2013-02-14 09:50:00,38.1,35.1,29.84,SW,217,5.0,6.0,89,0.00,,,0.00,158,Wunderground v.1.15,2013-02-14 14:50:00,
2013-02-14 10:00:00,39.0,35.5,29.84,SW,236,6.0,13.0,87,0.00,,,0.00,536,Wunderground v.1.15,2013-02-14 15:00:00,
2013-02-14 10:10:00,39.6,35.8,29.84,South,182,6.0,7.0,86,0.00,,,0.00,192,Wunderground v.1.15,2013-02-14 15:10:00,
2013-02-14 10:15:00,39.4,35.6,29.84,SSE,158,6.0,7.0,86,0.00,,,0.00,322,Wunderground v.1.15,2013-02-14 15:15:00,
2013-02-14 10:20:00,39.7,35.9,29.84,SSW,199,6.0,6.0,86,0.00,,,0.00,322,Wunderground v.1.15,2013-02-14 15:20:00,
2013-02-14 10:30:00,39.5,35.4,29.85,South,171,7.0,7.0,85,0.00,,,0.00,225,Wunderground v.1.15,2013-02-14 15:30:00,
2013-02-14 10:35:00,39.7,35.9,29.85,South,184,7.0,7.0,86,0.00,,,0.00,225,Wunderground v.1.15,2013-02-14 15:35:00,
2013-02-14 10:40:00,39.9,35.8,29.84,SSW,196,7.0,10.0,85,0.00,,,0.00,209,Wunderground v.1.15,2013-02-14 15:40:00,
2013-02-14 10:50:00,40.1,36.0,29.84,SSW,192,8.0,8.0,85,0.00,,,0.00,357,Wunderground v.1.15,2013-02-14 15:50:00,
2013-02-14 10:55:00,40.4,36.2,29.84,SSW,209,8.0,8.0,85,0.00,,,0.00,199,Wunderground v.1.15,2013-02-14 15:55:00,
2013-02-14 11:05:00,41.8,37.0,29.83,WSW,246,6.0,7.0,83,0.00,,,0.00,253,Wunderground v.1.15,2013-02-14 16:05:00,
2013-02-14 11:15:00,42.2,37.4,29.83,South,171,8.0,8.0,83,0.00,,,0.00,661,Wunderground v.1.15,2013-02-14 16:15:00,
2013-02-14 11:25:00,42.5,37.1,29.83,SSW,200,8.0,10.0,81,0.00,,,0.00,566,Wunderground v.1.15,2013-02-14 16:25:00,
2013-02-14 11:30:00,42.6,36.9,29.83,SSW,200,9.0,9.0,80,0.00,,,0.00,580,Wunderground v.1.15,2013-02-14 16:30:00,
2013-02-14 11:35:00,43.3,37.5,29.83,South,181,8.0,9.0,80,0.00,,,0.00,615,Wunderground v.1.15,2013-02-14 16:35:00,
2013-02-14 11:40:00,43.0,36.6,29.83,SSW,207,8.0,13.0,78,0.00,,,0.00,615,Wunderground v.1.15,2013-02-14 16:40:00,
2013-02-14 11:45:00,43.1,36.7,29.83,SSW,208,10.0,13.0,78,0.00,,,0.00,608,Wunderground v.1.15,2013-02-14 16:45:00,
2013-02-14 11:55:00,44.2,37.4,29.83,SSW,204,8.0,11.0,77,0.00,,,0.00,373,Wunderground v.1.15,2013-02-14 16:55:00,
2013-02-14 12:00:00,44.3,37.5,29.83,West,267,8.0,12.0,77,0.00,,,0.00,635,Wunderground v.1.15,2013-02-14 17:00:00,
2013-02-14 12:10:00,45.3,37.8,29.83,SSE,156,8.0,8.0,75,0.00,,,0.00,628,Wunderground v.1.15,2013-02-14 17:10:00,
2013-02-14 12:15:00,45.6,37.8,29.83,SSW,211,7.0,8.0,74,0.00,,,0.00,606,Wunderground v.1.15,2013-02-14 17:15:00,
2013-02-14 12:20:00,45.9,38.1,29.83,South,191,7.0,7.0,74,0.00,,,0.00,606,Wunderground v.1.15,2013-02-14 17:20:00,
2013-02-14 12:30:00,46.3,38.1,29.82,SSE,160,8.0,8.0,73,0.00,,,0.00,592,Wunderground v.1.15,2013-02-14 17:30:00,
2013-02-14 12:35:00,47.6,39.7,29.82,SW,217,8.0,10.0,74,0.00,,,0.00,610,Wunderground v.1.15,2013-02-14 17:35:00,
2013-02-14 12:40:00,48.0,38.7,29.82,South,180,6.0,6.0,70,0.00,,,0.00,622,Wunderground v.1.15,2013-02-14 17:40:00,
2013-02-14 12:45:00,47.8,38.1,29.82,WSW,251,6.0,6.0,69,0.00,,,0.00,608,Wunderground v.1.15,2013-02-14 17:45:00,
2013-02-14 12:50:00,48.2,38.5,29.81,SSW,199,7.0,7.0,69,0.00,,,0.00,619,Wunderground v.1.15,2013-02-14 17:50:00,
2013-02-14 12:55:00,49.2,38.7,29.81,SW,220,6.0,7.0,67,0.00,,,0.00,613,Wunderground v.1.15,2013-02-14 17:55:00,
2013-02-14 13:00:00,48.8,38.3,29.81,SSE,152,7.0,7.0,67,0.00,,,0.00,619,Wunderground v.1.15,2013-02-14 18:00:00,
2013-02-14 13:10:00,49.0,38.1,29.81,South,184,8.0,8.0,66,0.00,,,0.00,619,Wunderground v.1.15,2013-02-14 18:10:00,
2013-02-14 13:15:00,49.2,38.3,29.80,SSW,202,8.0,8.0,66,0.00,,,0.00,619,Wunderground v.1.15,2013-02-14 18:15:00,
2013-02-14 13:25:00,49.4,38.1,29.81,WSW,242,7.0,10.0,65,0.00,,,0.00,613,Wunderground v.1.15,2013-02-14 18:25:00,
2013-02-14 13:30:00,49.3,38.0,29.80,South,181,8.0,8.0,65,0.00,,,0.00,615,Wunderground v.1.15,2013-02-14 18:30:00,
2013-02-14 13:40:00,50.5,39.2,29.80,SSE,161,8.0,8.0,65,0.00,,,0.00,610,Wunderground v.1.15,2013-02-14 18:40:00,
2013-02-14 13:45:00,50.2,38.5,29.80,SSW,211,8.0,8.0,64,0.00,,,0.00,601,Wunderground v.1.15,2013-02-14 18:45:00,
2013-02-14 13:55:00,50.8,38.2,29.80,SSW,211,7.0,9.0,62,0.00,,,0.00,598,Wunderground v.1.15,2013-02-14 18:55:00,
2013-02-14 14:00:00,51.8,38.8,29.80,WSW,244,7.0,10.0,61,0.00,,,0.00,585,Wunderground v.1.15,2013-02-14 19:00:00,
2013-02-14 14:10:00,52.2,39.1,29.79,SSW,201,6.0,7.0,61,0.00,,,0.00,591,Wunderground v.1.15,2013-02-14 19:10:00,
2013-02-14 14:15:00,52.2,37.9,29.79,SW,219,7.0,8.0,58,0.00,,,0.00,578,Wunderground v.1.15,2013-02-14 19:15:00,
2013-02-14 14:20:00,52.6,37.8,29.78,South,169,7.0,15.0,57,0.00,,,0.00,573,Wunderground v.1.15,2013-02-14 19:20:00,
2013-02-14 14:25:00,52.2,37.4,29.79,South,175,9.0,15.0,57,0.00,,,0.00,570,Wunderground v.1.15,2013-02-14 19:25:00,
2013-02-14 14:30:00,52.9,37.2,29.79,SSW,192,8.0,8.0,55,0.00,,,0.00,563,Wunderground v.1.15,2013-02-14 19:30:00,
2013-02-14 14:35:00,53.4,37.6,29.78,WSW,244,7.0,8.0,55,0.00,,,0.00,559,Wunderground v.1.15,2013-02-14 19:35:00,
2013-02-14 14:40:00,53.6,37.3,29.79,SW,236,8.0,9.0,54,0.00,,,0.00,548,Wunderground v.1.15,2013-02-14 19:40:00,
2013-02-14 14:45:00,53.6,37.8,29.79,WSW,250,9.0,11.0,55,0.00,,,0.00,543,Wunderground v.1.15,2013-02-14 19:45:00,
2013-02-14 14:50:00,54.1,37.3,29.79,West,259,7.0,7.0,53,0.00,,,0.00,534,Wunderground v.1.15,2013-02-14 19:50:00,
2013-02-14 15:00:00,54.2,36.9,29.79,South,180,7.0,8.0,52,0.00,,,0.00,517,Wunderground v.1.15,2013-02-14 20:00:00,
2013-02-14 15:05:00,53.7,36.5,29.79,WSW,246,9.0,9.0,52,0.00,,,0.00,504,Wunderground v.1.15,2013-02-14 20:05:00,
2013-02-14 15:15:00,54.0,37.2,29.79,SW,219,8.0,9.0,53,0.00,,,0.00,487,Wunderground v.1.15,2013-02-14 20:15:00,
2013-02-14 15:20:00,54.2,37.4,29.79,West,261,8.0,9.0,53,0.00,,,0.00,480,Wunderground v.1.15,2013-02-14 20:20:00,
2013-02-14 15:25:00,54.0,37.2,29.79,SSW,202,7.0,9.0,53,0.00,,,0.00,466,Wunderground v.1.15,2013-02-14 20:25:00,
2013-02-14 15:30:00,54.1,36.9,29.79,SW,232,8.0,10.0,52,0.00,,,0.00,455,Wunderground v.1.15,2013-02-14 20:30:00,
2013-02-14 15:35:00,54.0,37.2,29.79,SW,225,8.0,10.0,53,0.00,,,0.00,445,Wunderground v.1.15,2013-02-14 20:35:00,
2013-02-14 15:45:00,54.3,37.0,29.79,SW,230,9.0,11.0,52,0.00,,,0.00,429,Wunderground v.1.15,2013-02-14 20:45:00,
2013-02-14 15:50:00,54.5,37.2,29.79,SW,231,8.0,8.0,52,0.00,,,0.00,422,Wunderground v.1.15,2013-02-14 20:50:00,
2013-02-14 16:00:00,54.4,37.6,29.79,SSW,213,8.0,8.0,53,0.00,,,0.00,390,Wunderground v.1.15,2013-02-14 21:00:00,
2013-02-14 16:05:00,54.1,36.9,29.80,WSW,242,9.0,9.0,52,0.00,,,0.00,415,Wunderground v.1.15,2013-02-14 21:05:00,
2013-02-14 16:10:00,54.1,37.3,29.80,WNW,298,9.0,9.0,53,0.00,,,0.00,381,Wunderground v.1.15,2013-02-14 21:10:00,
2013-02-14 16:15:00,54.2,36.9,29.81,SSW,207,8.0,11.0,52,0.00,,,0.00,357,Wunderground v.1.15,2013-02-14 21:15:00,
2013-02-14 16:20:00,54.5,36.2,29.80,NW,311,8.0,9.0,50,0.00,,,0.00,334,Wunderground v.1.15,2013-02-14 21:20:00,
2013-02-14 16:25:00,54.5,36.7,29.80,SW,223,8.0,9.0,51,0.00,,,0.00,329,Wunderground v.1.15,2013-02-14 21:25:00,
2013-02-14 16:30:00,54.8,36.5,29.81,WSW,255,6.0,11.0,50,0.00,,,0.00,332,Wunderground v.1.15,2013-02-14 21:30:00,
2013-02-14 16:40:00,54.3,36.0,29.82,WNW,289,7.0,7.0,50,0.00,,,0.00,287,Wunderground v.1.15,2013-02-14 21:40:00,
2013-02-14 16:45:00,54.5,36.7,29.81,WSW,258,6.0,7.0,51,0.00,,,0.00,302,Wunderground v.1.15,2013-02-14 21:45:00,
2013-02-14 16:55:00,54.4,36.1,29.82,WNW,294,6.0,11.0,50,0.00,,,0.00,255,Wunderground v.1.15,2013-02-14 21:55:00,
2013-02-14 17:05:00,54.0,36.3,29.82,SW,217,8.0,12.0,51,0.00,,,0.00,193,Wunderground v.1.15,2013-02-14 22:05:00,
2013-02-14 17:15:00,54.1,36.4,29.83,NW,321,8.0,8.0,51,0.00,,,0.00,181,Wunderground v.1.15,2013-02-14 22:15:00,
2013-02-14 17:20:00,53.8,36.6,29.83,WNW,294,8.0,8.0,52,0.00,,,0.00,165,Wunderground v.1.15,2013-02-14 22:20:00,
2013-02-14 17:30:00,53.3,35.1,29.83,WSW,256,7.0,7.0,50,0.00,,,0.00,32,Wunderground v.1.15,2013-02-14 22:30:00,
2013-02-14 17:35:00,52.9,34.8,29.83,WNW,286,7.0,7.0,50,0.00,,,0.00,69,Wunderground v.1.15,2013-02-14 22:35:00,
2013-02-14 17:45:00,52.7,35.1,29.83,WSW,241,6.0,11.0,51,0.00,,,0.00,40,Wunderground v.1.15,2013-02-14 22:45:00,
2013-02-14 17:50:00,52.4,35.3,29.83,WNW,297,6.0,6.0,52,0.00,,,0.00,19,Wunderground v.1.15,2013-02-14 22:50:00,
2013-02-14 17:55:00,52.2,35.1,29.84,WNW,299,6.0,6.0,52,0.00,,,0.00,21,Wunderground v.1.15,2013-02-14 22:55:00,
2013-02-14 18:05:00,51.4,35.3,29.84,West,260,4.0,6.0,54,0.00,,,0.00,12,Wunderground v.1.15,2013-02-14 23:05:00,
2013-02-14 18:10:00,51.3,35.2,29.84,West,279,4.0,4.0,54,0.00,,,0.00,9,Wunderground v.1.15,2013-02-14 23:10:00,
2013-02-14 18:15:00,51.1,35.5,29.85,West,271,4.0,4.0,55,0.00,,,0.00,5,Wunderground v.1.15,2013-02-14 23:15:00,
2013-02-14 18:20:00,51.0,35.4,29.84,SW,232,4.0,4.0,55,0.00,,,0.00,0,Wunderground v.1.15,2013-02-14 23:20:00,
2013-02-14 18:30:00,50.8,35.7,29.85,WSW,247,4.0,4.0,56,0.00,,,0.00,0,Wunderground v.1.15,2013-02-14 23:30:00,
2013-02-14 18:35:00,50.5,35.4,29.85,West,269,3.0,4.0,56,0.00,,,0.00,0,Wunderground v.1.15,2013-02-14 23:35:00,
2013-02-14 18:45:00,50.2,35.1,29.86,West,266,3.0,5.0,56,0.00,,,0.00,0,Wunderground v.1.15,2013-02-14 23:45:00,
2013-02-14 18:55:00,49.6,35.0,29.86,West,279,2.0,3.0,57,0.00,,,0.00,0,Wunderground v.1.15,2013-02-14 23:55:00,
2013-02-14 19:00:00,49.3,35.1,29.86,WSW,242,1.0,1.0,58,0.00,,,0.00,0,Wunderground v.1.15,2013-02-15 00:00:00,
2013-02-14 19:10:00,48.9,34.8,29.87,West,277,0.0,0.0,58,0.00,,,0.00,0,Wunderground v.1.15,2013-02-15 00:10:00,
2013-02-14 19:15:00,48.3,34.6,29.87,West,277,0.0,0.0,59,0.00,,,0.00,0,Wunderground v.1.15,2013-02-15 00:15:00,
2013-02-14 19:25:00,45.8,34.3,29.87,West,277,0.0,0.0,64,0.00,,,0.00,0,Wunderground v.1.15,2013-02-15 00:25:00,
2013-02-14 19:30:00,44.9,34.6,29.87,West,276,0.0,0.0,67,0.00,,,0.00,0,Wunderground v.1.15,2013-02-15 00:30:00,
2013-02-14 19:40:00,43.1,34.3,29.88,West,277,0.0,0.0,71,0.00,,,0.00,0,Wunderground v.1.15,2013-02-15 00:40:00,
2013-02-14 19:45:00,42.7,33.9,29.88,West,277,0.0,0.0,71,0.00,,,0.00,0,Wunderground v.1.15,2013-02-15 00:45:00,
2013-02-14 19:55:00,41.2,33.5,29.88,West,277,0.0,0.0,74,0.00,,,0.00,0,Wunderground v.1.15,2013-02-15 00:55:00,
2013-02-14 20:00:00,40.5,33.5,29.88,West,277,0.0,0.0,76,0.00,,,0.00,0,Wunderground v.1.15,2013-02-15 01:00:00,
2013-02-14 20:05:00,40.4,33.8,29.89,West,277,0.0,1.0,77,0.00,,,0.00,0,Wunderground v.1.15,2013-02-15 01:05:00,
2013-02-14 20:10:00,40.2,33.6,29.89,West,277,0.0,0.0,77,0.00,,,0.00,0,Wunderground v.1.15,2013-02-15 01:10:00,
2013-02-14 20:15:00,40.0,34.0,29.89,West,277,0.0,0.0,79,0.00,,,0.00,0,Wunderground v.1.15,2013-02-15 01:15:00,
2013-02-14 20:25:00,39.3,33.6,29.89,West,277,0.0,0.0,80,0.00,,,0.00,0,Wunderground v.1.15,2013-02-15 01:25:00,
2013-02-14 20:35:00,38.8,33.5,29.89,West,277,0.0,0.0,81,0.00,,,0.00,0,Wunderground v.1.15,2013-02-15 01:35:00,
2013-02-14 20:40:00,38.4,33.4,29.89,West,277,0.0,0.0,82,0.00,,,0.00,0,Wunderground v.1.15,2013-02-15 01:40:00,
2013-02-14 20:45:00,38.3,33.6,29.89,West,277,0.0,0.0,83,0.00,,,0.00,0,Wunderground v.1.15,2013-02-15 01:45:00,
2013-02-14 20:55:00,37.9,33.2,29.89,West,277,0.0,1.0,83,0.00,,,0.00,0,Wunderground v.1.15,2013-02-15 01:55:00,
2013-02-14 21:05:00,37.6,33.2,29.89,West,277,0.0,1.0,84,0.00,,,0.00,0,Wunderground v.1.15,2013-02-15 02:05:00,
2013-02-14 21:10:00,37.7,33.6,29.89,NNW,344,1.0,1.0,85,0.00,,,0.00,0,Wunderground v.1.15,2013-02-15 02:10:00,
2013-02-14 21:20:00,38.9,34.2,29.90,NW,325,1.0,1.0,83,0.00,,,0.00,0,Wunderground v.1.15,2013-02-15 02:20:00,
2013-02-14 21:25:00,40.2,34.5,29.90,NW,325,1.0,1.0,80,0.00,,,0.00,0,Wunderground v.1.15,2013-02-15 02:25:00,
2013-02-14 21:30:00,40.7,34.4,29.90,NW,325,1.0,1.0,78,0.00,,,0.00,0,Wunderground v.1.15,2013-02-15 02:30:00,
2013-02-14 21:35:00,40.5,34.2,29.90,NNW,340,1.0,1.0,78,0.00,,,0.00,0,Wunderground v.1.15,2013-02-15 02:35:00,
2013-02-14 21:40:00,39.3,33.6,29.90,NNW,343,1.0,1.0,80,0.00,,,0.00,0,Wunderground v.1.15,2013-02-15 02:40:00,
2013-02-14 21:45:00,38.9,33.3,29.91,NNW,343,1.0,1.0,80,0.00,,,0.00,0,Wunderground v.1.15,2013-02-15 02:45:00,
2013-02-14 21:55:00,38.8,33.5,29.91,NNW,341,1.0,2.0,81,0.00,,,0.00,0,Wunderground v.1.15,2013-02-15 02:55:00,
2013-02-14 22:00:00,38.9,33.9,29.91,NNW,341,1.0,1.0,82,0.00,,,0.00,0,Wunderground v.1.15,2013-02-15 03:00:00,
2013-02-14 22:10:00,39.7,34.3,29.91,NW,315,2.0,4.0,81,0.00,,,0.00,0,Wunderground v.1.15,2013-02-15 03:10:00,
2013-02-14 22:15:00,40.6,34.6,29.91,North,355,3.0,4.0,79,0.00,,,0.00,0,Wunderground v.1.15,2013-02-15 03:15:00,
2013-02-14 22:25:00,42.8,35.1,29.91,NW,317,4.0,5.0,74,0.00,,,0.00,0,Wunderground v.1.15,2013-02-15 03:25:00,
2013-02-14 22:30:00,43.2,35.1,29.91,NNW,344,4.0,5.0,73,0.00,,,0.00,0,Wunderground v.1.15,2013-02-15 03:30:00,
2013-02-14 22:40:00,43.6,35.2,29.90,North,5,5.0,5.0,72,0.00,,,0.00,0,Wunderground v.1.15,2013-02-15 03:40:00,
2013-02-14 22:50:00,43.5,34.7,29.90,NW,317,4.0,4.0,71,0.00,,,0.00,0,Wunderground v.1.15,2013-02-15 03:50:00,
2013-02-14 22:55:00,43.4,35.0,29.91,NNW,331,4.0,4.0,72,0.00,,,0.00,0,Wunderground v.1.15,2013-02-15 03:55:00,
2013-02-14 23:05:00,43.3,34.9,29.91,North,349,4.0,6.0,72,0.00,,,0.00,0,Wunderground v.1.15,2013-02-15 04:05:00,
2013-02-14 23:10:00,43.3,34.9,29.92,NW,322,5.0,5.0,72,0.00,,,0.00,0,Wunderground v.1.15,2013-02-15 04:10:00,
2013-02-14 23:15:00,43.3,34.9,29.92,North,5,6.0,6.0,72,0.00,,,0.00,0,Wunderground v.1.15,2013-02-15 04:15:00,
2013-02-14 23:20:00,43.2,34.8,29.92,NW,314,6.0,6.0,72,0.00,,,0.00,0,Wunderground v.1.15,2013-02-15 04:20:00,
2013-02-14 23:30:00,42.8,34.7,29.93,NNW,327,5.0,8.0,73,0.00,,,0.00,0,Wunderground v.1.15,2013-02-15 04:30:00,
2013-02-14 23:35:00,42.5,34.5,29.93,NW,319,5.0,8.0,73,0.00,,,0.00,0,Wunderground v.1.15,2013-02-15 04:35:00,
2013-02-14 23:40:00,42.3,34.6,29.93,NNW,335,6.0,6.0,74,0.00,,,0.00,0,Wunderground v.1.15,2013-02-15 04:40:00,
2013-02-14 23:45:00,42.1,34.4,29.93,NNW,336,4.0,6.0,74,0.00,,,0.00,0,Wunderground v.1.15,2013-02-15 04:45:00,
2013-02-14 23:55:00,41.6,34.3,29.93,NW,322,5.0,9.0,75,0.00,,,0.00,0,Wunderground v.1.15,2013-02-15 04:55:00,